Terminal Aerodrome Forecast
Issued by NWS

Home | Current Version | Previous Version | Text Only | Print | Product List | Glossary On
Versions: 1 2 3 4 5 6 7 8 9 10 11 12
449
FTAK31 PAJN 161736
TAFAWG
TAF
PAWG 161736Z 1618/1718 08009KT P6SM -SHRA FEW010 BKN030 OVC050
     FM170000 09006KT P6SM -SHRA SCT025 BKN050 OVC070
     FM170600 09005KT P6SM VCSH OVC060
     FM171200 08004KT 4SM BR VCSH SCT007 OVC050
     FM171600 11005KT P6SM FEW007 OVC050
      AMD LTD TO CLD VIS AND WIND 1706/1715=

USA.gov is the U.S. government's official web portal to all federal, state and local government web resources and services.